Time;durP1;ratioP1;P1;durP2;ratioP2;P2;SDS_P1;SDS_P2;PMS_P1;PMS_P2;Temp;Humidity;BMP_temperature;BMP_pressure;BME280_temperature;BME280_humidity;BME280_pressure;Samples;Min_cycle;Max_cycle;Signal;HPM_P1;HPM_P2
2023/01/09 00:00:58;;;;;;;4.18;2.90;;;;;;;7.11;46.96;95411.72;4991609;28;20282;-62
2023/01/09 00:03:24;;;;;;;0.95;0.95;;;;;;;7.19;46.62;95411.41;4991930;28;20305;-58
2023/01/09 00:08:37;;;;;;;0.80;0.80;;;;;;;6.51;47.99;95403.06;4991617;28;20198;-59
2023/01/09 00:11:04;;;;;;;4.90;4.45;;;;;;;6.18;48.91;95415.63;4991260;28;20195;-61
2023/01/09 00:13:31;;;;;;;1.23;1.13;;;;;;;6.23;48.49;95415.78;4991576;28;20190;-59
2023/01/09 00:15:58;;;;;;;1.90;1.80;;;;;;;5.61;50.23;95426.28;4990847;28;20651;-58
2023/01/09 00:18:26;;;;;;;4.07;3.13;;;;;;;6.23;48.88;95410.56;4991307;28;20350;-59
2023/01/09 00:20:52;;;;;;;0.30;0.30;;;;;;;6.74;47.54;95408.41;4990761;28;20226;-58
2023/01/09 00:23:19;;;;;;;0.50;0.50;;;;;;;6.09;50.10;95403.91;4991258;28;20195;-57
2023/01/09 00:25:46;;;;;;;3.80;3.15;;;;;;;6.75;47.98;95404.75;4990934;28;20226;-57
2023/01/09 00:28:13;;;;;;;2.70;2.42;;;;;;;6.77;47.59;95402.75;4991134;28;20210;-58
2023/01/09 00:30:39;;;;;;;0.68;0.68;;;;;;;6.82;47.03;95410.72;4990584;28;20645;-59
2023/01/09 00:33:06;;;;;;;1.33;1.30;;;;;;;6.87;46.91;95410.03;4991169;28;20281;-60
2023/01/09 00:35:33;;;;;;;5.03;1.60;;;;;;;6.94;46.54;95406.34;4990626;28;20728;-57
2023/01/09 00:38:02;;;;;;;0.20;0.20;;;;;;;7.14;46.76;95404.25;4991238;28;20194;-57
2023/01/09 00:40:29;;;;;;;1.35;0.95;;;;;;;7.22;46.06;95399.75;4990727;28;20217;-59
2023/01/09 00:42:56;;;;;;;1.30;1.20;;;;;;;6.44;47.86;95409.34;4990755;28;20203;-58
2023/01/09 00:45:27;;;;;;;5.53;3.47;;;;;;;6.60;48.22;95406.16;4990749;28;20245;-58
2023/01/09 00:48:06;;;;;;;0.65;0.65;;;;;;;7.05;47.29;95405.59;4990916;28;20260;-59
2023/01/09 00:50:34;;;;;;;4.72;1.80;;;;;;;6.98;47.50;95397.06;4990548;28;20213;-59
2023/01/09 00:53:11;;;;;;;3.85;3.53;;;;;;;7.07;47.27;95398.34;4978229;28;20277;-56
2023/01/09 00:55:38;;;;;;;1.15;1.13;;;;;;;6.85;47.28;95410.25;4990380;28;20285;-60
2023/01/09 00:58:05;;;;;;;1.38;1.35;;;;;;;6.93;46.72;95396.16;4991265;28;20317;-59
2023/01/09 01:00:32;;;;;;;9.63;4.03;;;;;;;6.91;47.24;95404.19;4988894;28;20277;-59
2023/01/09 01:02:59;;;;;;;1.67;1.58;;;;;;;6.48;47.78;95403.47;4990193;28;20190;-59
2023/01/09 01:08:16;;;;;;;0.08;0.08;;;;;;;5.57;50.50;95419.91;4990560;28;20210;-59
2023/01/09 01:10:44;;;;;;;1.50;1.13;;;;;;;5.23;51.09;95418.56;4989845;28;20206;-58
2023/01/09 01:13:11;;;;;;;6.20;3.78;;;;;;;5.94;50.34;95416.44;4990601;28;20289;-60
2023/01/09 01:15:39;;;;;;;4.43;1.77;;;;;;;6.32;49.66;95403.25;4990145;28;20249;-58
2023/01/09 01:18:06;;;;;;;1.52;1.42;;;;;;;5.59;51.45;95399.69;4990312;28;20286;-57
2023/01/09 01:20:33;;;;;;;2.25;2.05;;;;;;;5.24;52.13;95401.19;4989565;28;20297;-58
2023/01/09 01:23:00;;;;;;;3.08;2.50;;;;;;;5.35;51.39;95400.47;4990139;28;20289;-59
2023/01/09 01:25:27;;;;;;;1.38;0.82;;;;;;;5.72;50.32;95391.81;4989995;28;20646;-56
2023/01/09 01:27:54;;;;;;;1.98;1.83;;;;;;;5.53;51.15;95382.38;4990124;28;20264;-56
2023/01/09 01:30:20;;;;;;;6.13;4.53;;;;;;;6.08;49.95;95386.69;4989331;28;20782;-56
2023/01/09 01:32:47;;;;;;;4.78;3.85;;;;;;;6.24;49.29;95385.34;4989876;28;20297;-59
2023/01/09 01:35:14;;;;;;;11.85;1.67;;;;;;;6.14;48.66;95367.63;4990013;28;20205;-58
2023/01/09 01:37:41;;;;;;;5.25;2.13;;;;;;;5.94;49.04;95386.03;4990283;28;20210;-59
2023/01/09 01:40:09;;;;;;;2.85;2.63;;;;;;;5.91;48.97;95381.25;4989614;28;20210;-58
2023/01/09 01:42:36;;;;;;;0.75;0.75;;;;;;;6.11;48.73;95381.06;4989980;28;20202;-58
2023/01/09 01:45:08;;;;;;;6.82;2.38;;;;;;;6.03;48.37;95368.34;4989339;28;20297;-57
2023/01/09 01:47:38;;;;;;;0.77;0.70;;;;;;;6.30;48.38;95369.66;4990173;28;20202;-59
2023/01/09 01:50:14;;;;;;;3.58;3.28;;;;;;;6.17;48.85;95369.00;4989284;28;20233;-59
2023/01/09 01:52:46;;;;;;;2.58;2.30;;;;;;;6.25;48.30;95361.69;4989253;28;20708;-59
2023/01/09 01:55:15;;;;;;;1.85;1.75;;;;;;;6.18;48.51;95358.38;4989345;28;20194;-59
2023/01/09 01:57:46;;;;;;;3.13;1.98;;;;;;;6.20;48.70;95345.97;4989700;28;20202;-59
2023/01/09 02:00:14;;;;;;;5.07;3.72;;;;;;;6.09;48.98;95341.47;4989234;28;20233;-58
2023/01/09 02:02:42;;;;;;;3.13;2.80;;;;;;;5.75;49.77;95349.75;4989532;28;20650;-59
2023/01/09 02:05:10;;;;;;;0.57;0.57;;;;;;;5.16;51.50;95356.22;4988944;28;20202;-56
2023/01/09 02:07:37;;;;;;;0.45;0.45;;;;;;;5.89;49.94;95336.44;4989077;28;20206;-58
2023/01/09 02:10:04;;;;;;;1.80;1.70;;;;;;;6.40;48.34;95332.72;4989043;28;20198;-58
2023/01/09 02:12:32;;;;;;;0.15;0.15;;;;;;;6.47;48.17;95336.81;4989040;28;20233;-58
2023/01/09 02:15:04;;;;;;;2.40;2.20;;;;;;;6.66;47.95;95330.56;4988890;28;20211;-58
2023/01/09 02:18:01;;;;;;;2.00;1.90;;;;;;;6.50;47.99;95331.16;4989574;28;20705;-57
2023/01/09 02:20:50;;;;;;;1.83;1.73;;;;;;;6.32;47.76;95335.59;4988809;28;20331;-58
2023/01/09 02:23:54;;;;;;;0.20;0.20;;;;;;;6.38;48.20;95335.53;4988827;28;20199;-59
2023/01/09 02:26:33;;;;;;;4.13;1.65;;;;;;;6.60;47.80;95334.06;4988994;28;20198;-58
2023/01/09 02:29:21;;;;;;;1.38;1.33;;;;;;;6.34;48.06;95333.56;4989059;28;20194;-57
2023/01/09 02:31:52;;;;;;;0.57;0.57;;;;;;;6.75;48.29;95331.06;4977994;28;20297;-58
2023/01/09 02:34:56;;;;;;;0.40;0.40;;;;;;;6.84;47.53;95325.31;4988973;28;20221;-57
2023/01/09 02:37:58;;;;;;;3.38;2.03;;;;;;;6.55;48.27;95322.72;4989496;28;20198;-57
2023/01/09 02:40:38;;;;;;;1.20;1.10;;;;;;;6.77;47.85;95319.41;4978141;28;20230;-58
2023/01/09 02:43:07;;;;;;;0.35;0.35;;;;;;;6.96;47.47;95318.34;4988905;28;20248;-58
2023/01/09 02:45:33;;;;;;;4.07;3.08;;;;;;;6.59;48.28;95316.03;4988880;28;20714;-59
2023/01/09 02:48:00;;;;;;;8.07;1.98;;;;;;;6.95;47.63;95311.53;4988996;28;20194;-58
2023/01/09 02:51:01;;;;;;;0.45;0.45;;;;;;;6.63;48.13;95307.56;4988141;28;20210;-58
2023/01/09 02:53:59;;;;;;;1.58;0.65;;;;;;;6.61;47.86;95322.63;4980140;28;20595;-61
2023/01/09 02:56:54;;;;;;;6.03;3.95;;;;;;;6.75;47.07;95312.84;4989053;28;20642;-57
2023/01/09 02:59:59;;;;;;;3.15;2.90;;;;;;;6.84;46.85;95320.09;4988096;28;20246;-58
2023/01/09 03:02:43;;;;;;;3.25;2.97;;;;;;;6.81;46.99;95315.34;4988253;28;20262;-59
2023/01/09 03:05:28;;;;;;;6.78;2.25;;;;;;;6.40;47.55;95328.31;4988429;28;20207;-56
2023/01/09 03:07:58;;;;;;;2.78;1.98;;;;;;;5.40;49.64;95320.88;4977546;28;20245;-57
2023/01/09 03:10:40;;;;;;;1.63;1.52;;;;;;;5.84;48.22;95310.31;4987894;28;20546;-59
2023/01/09 03:13:13;;;;;;;1.15;1.05;;;;;;;5.30;49.77;95319.78;4989069;28;20608;-58
2023/01/09 03:15:43;;;;;;;4.03;3.30;;;;;;;5.64;48.89;95316.69;4988404;28;20199;-57
2023/01/09 03:18:12;;;;;;;3.75;2.60;;;;;;;5.79;48.62;95317.13;4988880;28;20682;-60
2023/01/09 03:20:40;;;;;;;0.57;0.57;;;;;;;5.96;48.63;95320.78;4975635;28;20775;-57
2023/01/09 03:23:07;;;;;;;1.02;0.93;;;;;;;6.06;48.36;95321.06;4988443;28;20211;-57
2023/01/09 03:25:34;;;;;;;2.97;2.72;;;;;;;6.30;46.92;95317.59;4991212;28;20217;-58
2023/01/09 03:28:04;;;;;;;0.82;0.82;;;;;;;6.20;47.15;95325.13;4992243;28;20369;-57
2023/01/09 03:30:33;;;;;;;2.25;2.05;;;;;;;6.32;47.16;95326.00;4991817;28;20289;-57
2023/01/09 03:33:00;;;;;;;1.98;1.83;;;;;;;5.89;47.58;95314.88;4992236;28;20226;-58
2023/01/09 03:35:27;;;;;;;0.98;0.98;;;;;;;6.00;47.47;95324.56;4992400;28;20348;-60
2023/01/09 03:37:54;;;;;;;0.65;0.65;;;;;;;6.14;47.21;95310.38;4992417;28;20277;-59
2023/01/09 03:40:21;;;;;;;2.95;2.72;;;;;;;6.30;47.22;95325.41;4991879;28;20767;-59
2023/01/09 03:42:48;;;;;;;2.30;0.85;;;;;;;5.86;47.18;95321.28;4991767;28;20198;-57
2023/01/09 03:45:15;;;;;;;4.00;2.63;;;;;;;5.35;49.24;95327.72;4991732;28;20209;-58
2023/01/09 03:47:42;;;;;;;0.93;0.93;;;;;;;5.44;48.74;95300.47;4991953;28;20256;-56
2023/01/09 03:50:09;;;;;;;0.65;0.65;;;;;;;6.04;47.32;95317.88;4991823;28;20206;-58
2023/01/09 03:52:36;;;;;;;2.28;1.33;;;;;;;5.97;46.98;95327.56;4991729;28;20191;-59
2023/01/09 03:55:03;;;;;;;2.15;1.75;;;;;;;6.15;46.74;95324.97;4991483;28;20728;-56
2023/01/09 03:57:30;;;;;;;3.33;1.98;;;;;;;6.07;46.73;95322.69;4991609;28;20205;-57
2023/01/09 03:59:57;;;;;;;0.50;0.50;;;;;;;6.11;46.81;95319.41;4991441;28;20265;-58
2023/01/09 04:02:23;;;;;;;1.05;1.05;;;;;;;6.22;45.72;95320.50;4990457;28;20318;-58
2023/01/09 04:04:50;;;;;;;3.45;3.15;;;;;;;6.06;46.23;95308.06;4990477;28;20195;-57
2023/01/09 04:07:17;;;;;;;1.60;0.95;;;;;;;6.01;46.40;95307.94;4991407;28;20226;-57
2023/01/09 04:09:44;;;;;;;2.42;2.28;;;;;;;6.14;45.88;95319.00;4990939;28;20618;-57
2023/01/09 04:12:10;;;;;;;6.07;1.77;;;;;;;6.10;46.50;95322.22;4991313;28;20202;-57
2023/01/09 04:14:37;;;;;;;1.80;1.42;;;;;;;5.56;46.95;95316.97;4991288;28;20979;-57
2023/01/09 04:17:04;;;;;;;2.42;2.22;;;;;;;5.78;47.00;95312.94;4991409;28;20207;-57
2023/01/09 04:19:31;;;;;;;0.28;0.28;;;;;;;5.83;47.06;95318.31;4990752;28;20260;-58
2023/01/09 04:21:57;;;;;;;9.27;3.08;;;;;;;5.94;46.62;95312.41;4991366;28;20202;-59
2023/01/09 04:24:24;;;;;;;1.00;1.00;;;;;;;5.76;46.91;95315.78;4991298;28;20285;-57
2023/01/09 04:26:51;;;;;;;0.20;0.20;;;;;;;5.38;48.21;95307.31;4991513;28;20601;-56
2023/01/09 04:29:18;;;;;;;0.68;0.68;;;;;;;5.70;47.34;95306.22;4991141;28;20260;-58
2023/01/09 04:31:44;;;;;;;0.88;0.88;;;;;;;5.71;47.67;95307.03;4990223;28;20222;-57
2023/01/09 04:34:11;;;;;;;2.63;1.17;;;;;;;5.33;48.71;95319.38;4990856;28;20205;-57
2023/01/09 04:36:38;;;;;;;3.15;2.08;;;;;;;4.53;50.65;95318.28;4990280;28;20202;-57
2023/01/09 04:39:05;;;;;;;1.27;1.00;;;;;;;5.13;48.91;95309.91;4990905;28;20213;-61
2023/01/09 04:41:47;;;;;;;3.50;3.22;;;;;;;5.26;48.99;95316.00;4990464;28;20720;-57
2023/01/09 04:44:19;;;;;;;0.38;0.38;;;;;;;5.41;48.35;95306.09;4990845;28;20219;-59
2023/01/09 04:46:46;;;;;;;0.68;0.57;;;;;;;5.44;47.78;95305.69;4991200;28;20210;-58
2023/01/09 04:49:14;;;;;;;0.38;0.38;;;;;;;5.29;48.56;95308.59;4990675;28;20642;-58
2023/01/09 04:51:41;;;;;;;0.65;0.65;;;;;;;4.71;49.63;95309.78;4990873;28;20190;-57
2023/01/09 04:54:08;;;;;;;1.75;1.20;;;;;;;4.90;49.64;95309.69;4990886;28;20205;-59
2023/01/09 04:56:36;;;;;;;1.17;1.15;;;;;;;5.23;48.46;95300.84;4990899;28;20260;-57
2023/01/09 04:59:04;;;;;;;0.30;0.30;;;;;;;5.39;48.47;95292.50;4990484;28;20947;-58
2023/01/09 05:01:32;;;;;;;0.63;0.52;;;;;;;5.13;48.84;95296.94;4988846;28;20389;-57
2023/01/09 05:03:59;;;;;;;1.30;1.20;;;;;;;4.33;51.15;95307.19;4990756;28;20195;-58
2023/01/09 05:06:27;;;;;;;3.17;2.20;;;;;;;4.99;49.73;95295.44;4989504;28;20233;-57
2023/01/09 05:08:55;;;;;;;1.00;0.95;;;;;;;4.27;51.46;95305.41;4989410;28;20210;-57
2023/01/09 05:11:24;;;;;;;0.57;0.57;;;;;;;4.95;49.50;95283.88;4990070;28;20214;-58
2023/01/09 05:13:52;;;;;;;13.18;3.33;;;;;;;5.31;50.55;95295.41;4990403;28;20325;-58
2023/01/09 05:16:19;;;;;;;2.45;2.03;;;;;;;5.84;49.71;95293.91;4990416;28;20218;-57
2023/01/09 05:18:46;;;;;;;1.38;1.27;;;;;;;5.64;48.82;95299.28;4990181;28;20317;-59
2023/01/09 05:21:13;;;;;;;0.75;0.75;;;;;;;5.61;48.76;95306.72;4990251;28;20328;-59
2023/01/09 05:23:40;;;;;;;0.43;0.43;;;;;;;5.67;48.00;95305.84;4989744;28;20222;-59
2023/01/09 05:26:07;;;;;;;1.45;1.35;;;;;;;5.61;48.01;95311.91;4990827;28;20190;-59
2023/01/09 05:28:33;;;;;;;0.93;0.93;;;;;;;5.10;48.59;95320.72;4990253;28;20257;-58
2023/01/09 05:31:00;;;;;;;1.73;1.35;;;;;;;5.28;48.59;95311.38;4989980;28;20230;-57
2023/01/09 05:33:27;;;;;;;0.45;0.45;;;;;;;5.02;49.24;95322.78;4990010;28;20201;-58
2023/01/09 05:35:53;;;;;;;0.68;0.68;;;;;;;4.64;50.20;95315.03;4976911;28;20655;-59
2023/01/09 05:38:20;;;;;;;1.85;1.70;;;;;;;4.83;50.71;95308.13;4988608;28;20214;-59
2023/01/09 05:40:47;;;;;;;1.77;1.67;;;;;;;4.90;50.28;95286.31;4989667;28;20257;-59
2023/01/09 05:43:14;;;;;;;2.47;2.03;;;;;;;5.22;49.35;95291.47;4989681;28;20249;-56
2023/01/09 05:45:42;;;;;;;1.85;0.65;;;;;;;4.90;50.33;95308.88;4987984;28;20285;-58
2023/01/09 05:48:09;;;;;;;11.68;3.90;;;;;;;5.44;49.10;95301.25;4987377;28;20761;-59
2023/01/09 05:50:36;;;;;;;4.63;3.08;;;;;;;5.22;49.91;95312.25;4987631;28;20198;-59
2023/01/09 05:53:05;;;;;;;1.35;1.25;;;;;;;5.45;49.03;95291.66;4988033;28;20272;-58
2023/01/09 05:55:32;;;;;;;1.27;1.00;;;;;;;5.54;48.70;95279.97;4987395;28;20195;-59
2023/01/09 05:57:59;;;;;;;3.08;2.78;;;;;;;5.53;48.57;95288.81;4988495;28;20642;-59
2023/01/09 06:00:26;;;;;;;0.40;0.40;;;;;;;5.63;47.93;95289.91;4987548;28;20222;-57
2023/01/09 06:02:53;;;;;;;3.13;1.08;;;;;;;5.45;48.49;95294.25;4976264;28;20202;-58
2023/01/09 06:05:20;;;;;;;3.80;3.30;;;;;;;5.40;48.66;95288.91;4988823;28;20233;-59
2023/01/09 06:07:47;;;;;;;3.80;2.10;;;;;;;5.31;49.20;95288.38;4989613;28;20728;-59
2023/01/09 06:10:14;;;;;;;1.15;0.80;;;;;;;5.32;48.91;95291.78;4989287;28;20207;-53
2023/01/09 06:12:48;;;;;;;2.65;2.45;;;;;;;5.42;50.04;95279.09;4989935;28;20206;-56
2023/01/09 06:15:15;;;;;;;0.70;0.68;;;;;;;4.86;50.67;95286.94;4988755;28;20213;-59
2023/01/09 06:17:42;;;;;;;0.65;0.65;;;;;;;5.25;49.38;95286.66;4989778;28;20225;-58
2023/01/09 06:20:10;;;;;;;2.35;2.22;;;;;;;4.87;50.82;95284.13;4988826;28;20227;-59
2023/01/09 06:22:37;;;;;;;1.83;1.67;;;;;;;5.52;49.55;95284.59;4988970;28;20218;-59
2023/01/09 06:25:05;;;;;;;1.40;0.95;;;;;;;4.88;52.90;95290.13;4988534;28;20700;-58
2023/01/09 06:27:31;;;;;;;0.52;0.52;;;;;;;5.32;50.10;95286.56;4989187;28;20237;-60
2023/01/09 06:29:58;;;;;;;1.05;0.88;;;;;;;5.53;49.48;95283.59;4988539;28;20904;-60
2023/01/09 06:32:25;;;;;;;1.83;1.70;;;;;;;5.57;48.90;95269.16;4988696;28;20203;-59
2023/01/09 06:34:52;;;;;;;0.95;0.95;;;;;;;5.59;48.50;95283.53;4987454;28;20198;-59
2023/01/09 06:37:19;;;;;;;0.30;0.30;;;;;;;5.88;48.21;95282.06;4987661;28;20630;-60
2023/01/09 06:39:46;;;;;;;0.55;0.55;;;;;;;5.96;47.56;95279.19;4987735;28;20190;-59
2023/01/09 06:42:12;;;;;;;1.85;1.75;;;;;;;5.79;47.86;95288.53;4988097;28;20226;-61
2023/01/09 06:44:39;;;;;;;1.25;1.20;;;;;;;6.02;47.16;95275.72;4987444;28;20213;-60
2023/01/09 06:47:06;;;;;;;1.20;1.10;;;;;;;6.10;47.16;95278.00;4988057;28;20300;-60
2023/01/09 06:49:33;;;;;;;1.42;1.33;;;;;;;6.19;46.71;95279.31;4987753;28;20306;-59
2023/01/09 06:52:04;;;;;;;5.57;2.75;;;;;;;6.03;47.02;95279.91;4989004;28;20289;-58
2023/01/09 06:54:31;;;;;;;1.60;1.50;;;;;;;5.94;46.83;95281.19;4988324;28;20203;-59
2023/01/09 06:56:58;;;;;;;1.38;1.30;;;;;;;5.78;47.26;95282.56;4989241;28;20289;-59
2023/01/09 06:59:25;;;;;;;4.88;1.95;;;;;;;6.11;46.99;95277.00;4991624;28;20206;-59
2023/01/09 07:01:52;;;;;;;2.33;2.13;;;;;;;5.73;48.15;95274.59;4993264;28;20222;-59
2023/01/09 07:04:20;;;;;;;4.43;3.65;;;;;;;6.06;47.20;95274.25;4992863;28;20669;-59
2023/01/09 07:06:48;;;;;;;3.10;2.65;;;;;;;5.93;48.06;95275.19;4993132;28;20206;-59
2023/01/09 07:09:15;;;;;;;1.10;1.10;;;;;;;6.41;47.21;95272.63;4993000;28;20237;-59
2023/01/09 07:11:42;;;;;;;1.30;1.23;;;;;;;6.25;47.67;95275.84;4992847;28;20639;-59
2023/01/09 07:14:09;;;;;;;3.30;2.42;;;;;;;6.22;47.92;95275.47;4993140;28;20234;-59
2023/01/09 07:16:35;;;;;;;3.05;2.38;;;;;;;6.29;47.88;95263.97;4992005;28;20298;-61
2023/01/09 07:19:02;;;;;;;0.90;0.90;;;;;;;6.29;47.48;95269.19;4992668;28;20191;-60
2023/01/09 07:21:29;;;;;;;2.15;2.03;;;;;;;6.41;47.00;95272.63;4991739;28;20249;-60
2023/01/09 07:23:58;;;;;;;3.40;2.90;;;;;;;6.46;46.91;95275.34;4992908;28;20195;-60
2023/01/09 07:26:25;;;;;;;4.55;3.30;;;;;;;6.57;47.43;95285.00;4991781;28;20277;-59
2023/01/09 07:28:53;;;;;;;2.90;2.65;;;;;;;6.70;46.84;95281.44;4992806;28;20740;-59
2023/01/09 07:31:20;;;;;;;2.53;2.03;;;;;;;6.34;47.59;95279.72;4991604;28;20689;-58
2023/01/09 07:33:47;;;;;;;3.60;3.28;;;;;;;6.52;47.34;95279.69;4992475;28;20210;-59
2023/01/09 07:36:13;;;;;;;1.70;1.60;;;;;;;6.04;48.90;95274.47;4991348;28;20199;-58
2023/01/09 07:38:41;;;;;;;1.67;1.58;;;;;;;6.23;49.03;95275.25;4992080;28;20264;-59
2023/01/09 07:41:08;;;;;;;9.52;3.47;;;;;;;6.62;47.89;95272.16;4991560;28;20246;-57
2023/01/09 07:43:36;;;;;;;7.40;4.35;;;;;;;6.90;47.70;95271.53;4992359;28;20206;-59
2023/01/09 07:46:04;;;;;;;9.52;6.97;;;;;;;7.24;47.29;95272.63;4991536;28;20223;-59
2023/01/09 07:48:31;;;;;;;2.53;2.33;;;;;;;7.55;46.26;95277.50;4992533;28;20548;-59
2023/01/09 07:50:58;;;;;;;8.93;8.05;;;;;;;6.98;47.72;95282.44;4992015;28;20278;-62
2023/01/09 07:53:25;;;;;;;6.85;5.85;;;;;;;7.22;48.22;95286.66;4992247;28;20203;-61
2023/01/09 07:55:52;;;;;;;22.88;9.20;;;;;;;7.31;47.79;95288.94;4991308;28;20206;-60
2023/01/09 07:58:19;;;;;;;7.57;5.90;;;;;;;7.82;46.42;95287.25;4992016;28;20199;-59
2023/01/09 08:00:45;;;;;;;12.77;7.45;;;;;;;8.15;46.48;95281.41;4991483;28;20226;-59
2023/01/09 08:03:12;;;;;;;20.40;11.52;;;;;;;8.30;46.00;95289.59;4992177;28;20281;-59
2023/01/09 08:05:39;;;;;;;15.25;11.43;;;;;;;8.18;45.76;95291.38;4991356;28;20206;-59
2023/01/09 08:08:06;;;;;;;16.88;13.15;;;;;;;8.34;46.06;95290.69;4991555;28;20257;-59
2023/01/09 08:10:33;;;;;;;20.98;13.40;;;;;;;8.76;45.26;95284.19;4990625;28;20260;-58
2023/01/09 08:13:00;;;;;;;11.70;7.72;;;;;;;8.76;45.48;95289.41;4992485;28;20226;-58
2023/01/09 08:15:26;;;;;;;15.13;13.23;;;;;;;9.07;45.19;95290.72;4991665;28;20654;-59
2023/01/09 08:17:53;;;;;;;11.05;7.63;;;;;;;9.38;45.18;95286.81;4991962;28;20195;-59
2023/01/09 08:20:20;;;;;;;6.13;5.63;;;;;;;9.76;45.06;95279.78;4990928;28;20210;-59
2023/01/09 08:22:52;;;;;;;8.50;7.68;;;;;;;9.69;44.76;95273.16;4991629;28;20662;-60
2023/01/09 08:25:19;;;;;;;9.20;6.53;;;;;;;9.71;45.54;95289.38;4991163;28;20194;-59
2023/01/09 08:27:47;;;;;;;13.55;5.25;;;;;;;10.01;44.62;95277.53;4991366;28;20253;-59
2023/01/09 08:30:14;;;;;;;12.82;6.97;;;;;;;9.66;45.71;95284.06;4977861;28;20296;-59
2023/01/09 08:32:41;;;;;;;3.60;3.30;;;;;;;10.15;45.02;95275.34;4991090;28;20202;-60
2023/01/09 08:35:09;;;;;;;5.57;2.95;;;;;;;10.46;44.49;95279.94;4990659;28;20194;-59
2023/01/09 08:37:37;;;;;;;6.80;5.67;;;;;;;10.66;45.40;95277.53;4991121;28;20198;-59
2023/01/09 08:40:04;;;;;;;2.23;1.97;;;;;;;10.58;44.66;95275.38;4991093;28;20438;-58
2023/01/09 08:48:02;;;;;;;2.60;2.40;;;;;;;9.76;45.97;95269.31;4991047;28;20964;-60
2023/01/09 08:50:28;;;;;;;2.40;2.30;;;;;;;10.59;45.10;95258.59;4990266;28;20198;-59
2023/01/09 08:52:56;;;;;;;3.73;3.43;;;;;;;10.91;44.92;95267.28;4990902;28;20464;-58
2023/01/09 08:55:23;;;;;;;5.07;4.55;;;;;;;11.02;44.37;95262.97;4990698;28;20450;-60
2023/01/09 08:57:51;;;;;;;2.50;2.35;;;;;;;11.45;44.00;95256.72;4991257;28;20207;-59
2023/01/09 09:00:20;;;;;;;6.13;3.53;;;;;;;12.22;42.95;95252.50;4990408;28;20668;-59
2023/01/09 09:02:56;;;;;;;2.03;1.93;;;;;;;12.50;41.98;95246.81;4991029;28;20846;-60
2023/01/09 09:05:24;;;;;;;2.63;2.20;;;;;;;12.53;43.21;95237.63;4990340;28;20536;-59
2023/01/09 09:07:55;;;;;;;3.93;3.60;;;;;;;12.64;42.32;95234.78;4991005;28;20452;-59
2023/01/09 09:10:24;;;;;;;0.97;0.97;;;;;;;12.77;42.31;95234.25;4990344;28;20456;-60
2023/01/09 09:12:54;;;;;;;5.13;3.43;;;;;;;12.72;42.45;95231.63;4990627;28;20442;-60
2023/01/09 09:15:25;;;;;;;2.80;2.20;;;;;;;12.68;42.23;95225.31;4989797;28;20453;-60
2023/01/09 09:18:00;;;;;;;3.70;2.87;;;;;;;12.38;42.67;95219.97;4990502;28;20477;-59
2023/01/09 09:20:33;;;;;;;0.70;0.67;;;;;;;12.63;42.37;95198.22;4989514;28;20970;-58
2023/01/09 09:22:59;;;;;;;1.73;1.60;;;;;;;12.78;41.99;95206.94;4989161;28;21032;-59
2023/01/09 09:25:26;;;;;;;1.87;1.77;;;;;;;12.86;41.09;95211.69;4990393;28;20544;-58
2023/01/09 09:27:56;;;;;;;1.87;1.20;;;;;;;12.73;41.40;95203.50;4990435;28;20490;-59
2023/01/09 09:30:23;;;;;;;0.67;0.67;;;;;;;12.71;41.37;95195.09;4989246;28;20474;-59
2023/01/09 09:32:50;;;;;;;3.20;2.63;;;;;;;13.05;40.59;95194.34;4990235;28;20465;-61
2023/01/09 09:35:18;;;;;;;1.73;1.53;;;;;;;13.14;41.00;95190.16;4990170;28;20540;-59
2023/01/09 09:37:54;;;;;;;4.63;3.70;;;;;;;13.30;41.29;95179.63;4989666;28;20500;-59
2023/01/09 09:40:33;;;;;;;2.23;2.13;;;;;;;13.55;40.60;95176.94;4989771;28;20884;-58
2023/01/09 09:47:05;;;;;;;2.40;2.03;;;;;;;13.86;39.05;95157.38;4989401;28;20527;-60
2023/01/09 09:50:26;;;;;;;3.13;2.77;;;;;;;13.74;40.10;95147.13;5006516;28;20441;-59
2023/01/09 09:53:00;;;;;;;5.93;3.87;;;;;;;13.86;39.26;95131.81;4929569;29;20475;-59
2023/01/09 09:55:31;;;;;;;2.50;2.30;;;;;;;13.87;39.84;95122.84;4981733;28;20454;-58
2023/01/09 09:58:05;;;;;;;0.97;0.97;;;;;;;13.88;39.46;95126.28;4989895;28;20430;-60
2023/01/09 10:00:32;;;;;;;3.07;2.57;;;;;;;12.99;39.55;95037.53;4988983;28;20445;-57
2023/01/09 10:03:04;;;;;;;6.23;3.60;;;;;;;13.62;40.60;95107.16;4989828;28;20473;-60
2023/01/09 10:05:39;;;;;;;0.93;0.93;;;;;;;14.21;39.22;95086.84;4989019;28;20465;-59
2023/01/09 10:08:28;;;;;;;1.80;1.70;;;;;;;14.47;38.61;95076.19;4989611;28;20445;-59
2023/01/09 10:10:55;;;;;;;7.20;3.23;;;;;;;14.67;38.58;95060.97;4988958;28;20477;-59
2023/01/09 10:16:15;;;;;;;1.77;1.37;;;;;;;14.84;37.85;95045.53;4989096;28;20454;-59
2023/01/09 10:18:54;;;;;;;1.33;1.23;;;;;;;14.86;38.62;95050.53;4989452;28;20968;-60
2023/01/09 10:21:44;;;;;;;7.33;1.70;;;;;;;14.58;38.13;95049.44;4988628;28;20469;-58
2023/01/09 10:24:32;;;;;;;0.80;0.80;;;;;;;14.24;38.31;95040.72;4997707;28;20452;-58
2023/01/09 10:27:08;;;;;;;0.50;0.50;;;;;;;14.24;38.06;95038.06;4989341;28;20608;-59
2023/01/09 10:29:49;;;;;;;0.17;0.17;;;;;;;14.65;38.62;95028.81;4988593;28;20449;-59
2023/01/09 10:32:32;;;;;;;0.17;0.17;;;;;;;14.56;37.27;95019.91;4989759;28;20481;-62
2023/01/09 10:34:59;;;;;;;0.00;0.00;;;;;;;14.36;37.57;95024.59;4988364;28;20438;-60
2023/01/09 10:37:35;;;;;;;1.30;1.20;;;;;;;13.83;38.53;95021.72;4989419;28;20989;-59
2023/01/09 10:40:18;;;;;;;0.20;0.20;;;;;;;14.75;37.77;95023.47;4987991;28;20441;-58
2023/01/09 10:42:46;;;;;;;0.83;0.83;;;;;;;15.05;37.04;95023.16;4988827;28;20513;-58
2023/01/09 10:45:23;;;;;;;0.73;0.73;;;;;;;14.82;37.76;95018.66;4989132;28;20816;-60
2023/01/09 10:47:52;;;;;;;17.93;1.60;;;;;;;14.80;37.60;95004.94;4989029;28;20785;-60
2023/01/09 10:50:26;;;;;;;0.57;0.57;;;;;;;15.00;37.44;95002.09;4988900;28;20500;-58
2023/01/09 10:52:55;;;;;;;0.30;0.30;;;;;;;15.00;37.17;94998.66;4989277;28;20840;-58
2023/01/09 10:55:39;;;;;;;1.57;1.23;;;;;;;14.47;38.03;95000.50;4988655;28;20537;-60
2023/01/09 10:58:12;;;;;;;1.43;1.33;;;;;;;14.88;37.81;94996.44;4978703;28;20446;-60
2023/01/09 11:00:40;;;;;;;4.03;1.60;;;;;;;15.02;37.57;94986.78;4988135;28;20442;-59
2023/01/09 11:03:12;;;;;;;0.20;0.20;;;;;;;15.03;37.14;94977.81;4989031;28;20476;-59
2023/01/09 11:05:40;;;;;;;0.37;0.30;;;;;;;15.18;36.83;94958.38;4988505;28;20442;-60
2023/01/09 11:08:14;;;;;;;2.43;1.33;;;;;;;15.12;37.16;94956.84;4989213;28;20965;-59
2023/01/09 11:10:50;;;;;;;0.97;0.90;;;;;;;15.17;37.11;94968.16;4988401;28;20879;-59
2023/01/09 11:13:28;;;;;;;1.10;1.07;;;;;;;15.27;36.53;94947.97;4988943;28;20810;-58
2023/01/09 11:16:05;;;;;;;2.47;1.57;;;;;;;15.29;37.03;94954.53;4988862;28;20768;-57
2023/01/09 11:18:46;;;;;;;1.60;0.97;;;;;;;14.62;36.76;94966.09;4988826;28;21154;-61
2023/01/09 11:21:31;;;;;;;0.40;0.40;;;;;;;14.70;37.19;94954.16;4988773;28;20961;-59
2023/01/09 11:24:20;;;;;;;1.33;1.23;;;;;;;14.47;37.44;94963.56;4988886;28;21019;-58
2023/01/09 11:26:49;;;;;;;0.50;0.50;;;;;;;14.09;37.60;94953.84;4988540;28;20434;-59
2023/01/09 11:29:23;;;;;;;0.73;0.73;;;;;;;13.65;37.84;94951.25;4988645;28;20537;-59
2023/01/09 11:31:53;;;;;;;0.73;0.60;;;;;;;14.12;37.25;94950.69;4988770;28;20477;-58
2023/01/09 11:34:23;;;;;;;1.83;1.00;;;;;;;14.05;38.10;94945.72;4987973;28;20960;-59
2023/01/09 11:36:52;;;;;;;0.50;0.50;;;;;;;13.57;39.05;94948.41;4989113;28;20473;-59
2023/01/09 11:39:24;;;;;;;1.03;0.93;;;;;;;14.05;38.06;94944.94;4988329;28;20485;-60
2023/01/09 11:41:58;;;;;;;1.23;1.13;;;;;;;13.96;38.53;94941.28;4988993;28;20477;-58
2023/01/09 11:44:27;;;;;;;0.30;0.30;;;;;;;13.66;39.08;94944.94;4988265;28;20692;-60
2023/01/09 11:46:54;;;;;;;0.43;0.43;;;;;;;13.58;38.94;94931.53;4991660;28;20453;-59
2023/01/09 11:49:24;;;;;;;0.10;0.10;;;;;;;13.46;39.76;94925.84;4991570;28;20441;-59
2023/01/09 11:52:18;;;;;;;1.23;1.13;;;;;;;13.77;39.47;94924.59;4992157;28;20454;-59
2023/01/09 11:55:01;;;;;;;0.10;0.10;;;;;;;13.66;39.35;94936.25;4991351;28;20508;-59
2023/01/09 11:57:29;;;;;;;0.10;0.10;;;;;;;13.71;38.80;94934.38;4992478;28;20516;-59
2023/01/09 12:00:00;;;;;;;0.30;0.30;;;;;;;13.57;39.52;94932.63;4991749;28;20445;-60
2023/01/09 12:02:55;;;;;;;0.20;0.20;;;;;;;13.49;39.03;94933.19;4991360;28;20492;-59
2023/01/09 12:05:24;;;;;;;0.20;0.20;;;;;;;13.80;39.33;94924.03;4989177;28;20887;-59
2023/01/09 12:07:54;;;;;;;0.37;0.37;;;;;;;14.29;38.51;94908.91;4991649;28;20447;-59
2023/01/09 12:10:45;;;;;;;0.93;0.93;;;;;;;14.45;38.33;94925.38;4991042;28;20558;-59
2023/01/09 12:13:41;;;;;;;0.60;0.60;;;;;;;14.43;37.48;94917.75;4991701;28;20916;-59